Time;durP1;ratioP1;P1;durP2;ratioP2;P2;SDS_P1;SDS_P2;PMS_P1;PMS_P2;Temp;Humidity;BMP_temperature;BMP_pressure;BME280_temperature;BME280_humidity;BME280_pressure;Samples;Min_cycle;Max_cycle;Signal;HPM_P1;HPM_P2
2023/04/16 00:00:36;;;;;;;566.40;130.00;;;;;;;;;;10533680;28;20089;-80
2023/04/16 00:05:37;;;;;;;536.40;125.40;;;;;;;;;;10533881;28;20047;-80
2023/04/16 00:10:38;;;;;;;891.87;195.07;;;;;;;;;;10533067;28;20038;-80
2023/04/16 00:15:39;;;;;;;500.90;127.40;;;;;;;;;;10533573;28;20119;-81
2023/04/16 00:20:40;;;;;;;315.67;91.40;;;;;;;;;;10530368;28;20028;-82
2023/04/16 00:25:41;;;;;;;404.13;115.77;;;;;;;;;;10533126;28;20117;-80
2023/04/16 00:30:42;;;;;;;288.57;97.57;;;;;;;;;;10530850;28;20039;-80
2023/04/16 00:35:46;;;;;;;233.67;82.47;;;;;;;;;;10531181;28;20417;-82
2023/04/16 00:40:47;;;;;;;261.27;91.00;;;;;;;;;;10532045;28;20055;-81
2023/04/16 00:45:48;;;;;;;246.33;90.23;;;;;;;;;;10532753;28;20032;-82
2023/04/16 00:50:49;;;;;;;310.37;98.57;;;;;;;;;;10530826;28;20085;-82
2023/04/16 00:55:51;;;;;;;365.73;115.00;;;;;;;;;;10532264;28;20032;-79
2023/04/16 01:00:52;;;;;;;660.93;177.40;;;;;;;;;;10530863;28;20031;-81
2023/04/16 01:05:52;;;;;;;573.03;161.73;;;;;;;;;;10530867;28;20066;-79
2023/04/16 01:10:53;;;;;;;367.20;124.63;;;;;;;;;;10531285;28;20088;-79
2023/04/16 01:15:54;;;;;;;321.43;116.03;;;;;;;;;;10531687;28;20024;-78
2023/04/16 01:20:55;;;;;;;1118.30;264.80;;;;;;;;;;10530209;28;20042;-79
2023/04/16 01:25:56;;;;;;;306.07;104.47;;;;;;;;;;10531236;28;20051;-79
2023/04/16 01:30:57;;;;;;;267.17;92.40;;;;;;;;;;10529178;28;20102;-81
2023/04/16 01:35:58;;;;;;;203.57;75.40;;;;;;;;;;10529937;28;20047;-81
2023/04/16 01:41:00;;;;;;;229.23;83.80;;;;;;;;;;10529522;28;20097;-79
2023/04/16 01:46:11;;;;;;;216.87;83.90;;;;;;;;;;10529369;28;20038;-78
2023/04/16 01:51:12;;;;;;;762.43;180.67;;;;;;;;;;10529732;28;20089;-78
2023/04/16 01:56:13;;;;;;;228.10;79.70;;;;;;;;;;10529660;28;20036;-79
2023/04/16 02:01:14;;;;;;;509.53;132.53;;;;;;;;;;10528054;28;20024;-79
2023/04/16 02:06:15;;;;;;;171.43;70.13;;;;;;;;;;10528303;28;20051;-78
2023/04/16 02:11:16;;;;;;;208.60;75.60;;;;;;;;;;10528663;28;20420;-79
2023/04/16 02:16:17;;;;;;;407.53;110.97;;;;;;;;;;10528953;28;20455;-80
2023/04/16 02:21:19;;;;;;;339.87;113.07;;;;;;;;;;10509217;28;20089;-81
2023/04/16 02:26:20;;;;;;;416.47;119.73;;;;;;;;;;10527803;28;20047;-79
2023/04/16 02:31:21;;;;;;;297.77;101.73;;;;;;;;;;10527034;28;20032;-80
2023/04/16 02:36:22;;;;;;;258.20;89.77;;;;;;;;;;10528301;28;20032;-80
2023/04/16 02:41:23;;;;;;;224.53;80.70;;;;;;;;;;10508492;28;20043;-78
2023/04/16 02:46:24;;;;;;;288.33;91.47;;;;;;;;;;10527676;28;20028;-79
2023/04/16 02:51:26;;;;;;;430.97;120.50;;;;;;;;;;10527021;28;20035;-79
2023/04/16 02:56:27;;;;;;;513.30;152.30;;;;;;;;;;10527165;28;20066;-79
2023/04/16 03:01:28;;;;;;;551.53;126.67;;;;;;;;;;10525818;28;20107;-80
2023/04/16 03:06:30;;;;;;;468.73;102.70;;;;;;;;;;10486601;28;20361;-79
2023/04/16 03:11:31;;;;;;;1017.23;232.37;;;;;;;;;;10485548;28;20024;-79
2023/04/16 03:16:32;;;;;;;660.10;122.93;;;;;;;;;;10485828;28;20029;-79
2023/04/16 03:21:33;;;;;;;516.77;105.13;;;;;;;;;;10495802;28;20028;-79
2023/04/16 03:26:34;;;;;;;449.70;84.63;;;;;;;;;;10497107;28;20052;-80
2023/04/16 03:31:35;;;;;;;617.63;129.70;;;;;;;;;;10488873;28;20032;-79
2023/04/16 03:36:36;;;;;;;623.17;124.23;;;;;;;;;;10467079;28;20028;-79
2023/04/16 03:41:37;;;;;;;628.30;114.83;;;;;;;;;;10487325;28;20701;-81
2023/04/16 03:46:46;;;;;;;554.90;103.50;;;;;;;;;;10484453;28;20036;-80
2023/04/16 03:51:47;;;;;;;608.33;109.80;;;;;;;;;;10486735;28;20040;-79
2023/04/16 03:56:48;;;;;;;557.33;104.60;;;;;;;;;;10487685;28;20040;-79
2023/04/16 04:01:49;;;;;;;624.50;113.33;;;;;;;;;;10502260;28;20078;-79
2023/04/16 04:06:50;;;;;;;460.83;82.93;;;;;;;;;;10525682;28;20097;-81
2023/04/16 04:11:51;;;;;;;561.03;98.97;;;;;;;;;;10510502;28;20502;-77
2023/04/16 04:16:52;;;;;;;531.53;94.07;;;;;;;;;;10532027;28;20036;-79
2023/04/16 04:21:53;;;;;;;585.50;104.40;;;;;;;;;;10530665;28;20105;-81
2023/04/16 04:26:54;;;;;;;491.73;89.27;;;;;;;;;;10532406;28;20041;-81
2023/04/16 04:31:55;;;;;;;380.03;70.40;;;;;;;;;;10533400;28;20034;-81
2023/04/16 04:36:56;;;;;;;320.77;62.90;;;;;;;;;;10531702;28;20380;-80
2023/04/16 04:41:57;;;;;;;341.17;66.90;;;;;;;;;;10532044;28;20058;-80
2023/04/16 04:46:58;;;;;;;458.70;87.00;;;;;;;;;;10532440;28;20032;-80
2023/04/16 04:52:00;;;;;;;393.03;72.37;;;;;;;;;;10530955;28;20062;-80
2023/04/16 04:57:01;;;;;;;563.60;90.10;;;;;;;;;;10532028;28;20059;-83
2023/04/16 05:02:02;;;;;;;471.33;80.97;;;;;;;;;;10531702;28;20151;-83
2023/04/16 05:07:03;;;;;;;426.47;78.33;;;;;;;;;;10530520;28;20036;-81
2023/04/16 05:12:04;;;;;;;384.90;72.03;;;;;;;;;;10529857;28;20017;-79
2023/04/16 05:17:06;;;;;;;338.00;65.57;;;;;;;;;;10520645;28;20047;-80
2023/04/16 05:22:07;;;;;;;379.63;72.07;;;;;;;;;;10543681;28;20028;-81
2023/04/16 05:27:08;;;;;;;412.43;75.40;;;;;;;;;;10530376;28;20737;-82
2023/04/16 05:32:09;;;;;;;263.27;59.13;;;;;;;;;;10528209;28;20474;-80
2023/04/16 05:37:10;;;;;;;219.53;54.37;;;;;;;;;;10528828;28;20028;-80
2023/04/16 05:42:11;;;;;;;200.93;51.80;;;;;;;;;;10530945;28;20467;-82
2023/04/16 05:47:12;;;;;;;200.97;52.40;;;;;;;;;;10530524;28;20024;-80
2023/04/16 05:52:13;;;;;;;262.63;65.53;;;;;;;;;;10526560;28;20039;-82
2023/04/16 05:57:15;;;;;;;236.07;63.57;;;;;;;;;;10517597;28;20036;-82
2023/04/16 06:02:16;;;;;;;239.47;65.17;;;;;;;;;;10528861;28;20087;-82
2023/04/16 06:07:17;;;;;;;171.13;57.17;;;;;;;;;;10514969;28;20580;-80
2023/04/16 06:12:18;;;;;;;167.90;53.63;;;;;;;;;;10496455;28;20024;-82
2023/04/16 06:17:19;;;;;;;152.67;50.40;;;;;;;;;;10497797;28;20043;-81
2023/04/16 06:22:20;;;;;;;187.93;55.97;;;;;;;;;;10507214;28;20522;-82
2023/04/16 06:27:21;;;;;;;144.23;46.57;;;;;;;;;;10524042;28;20036;-82
2023/04/16 06:32:21;;;;;;;126.23;50.97;;;;;;;;;;10525206;28;20537;-81
2023/04/16 06:37:22;;;;;;;156.47;55.47;;;;;;;;;;10526548;28;20068;-81
2023/04/16 06:42:24;;;;;;;101.47;41.47;;;;;;;;;;10527145;28;20031;-83
2023/04/16 06:47:25;;;;;;;95.05;38.35;;;;;;;;;;10527019;28;20067;-81
2023/04/16 06:52:26;;;;;;;83.50;33.20;;;;;;;;;;10526760;28;20524;-81
2023/04/16 06:57:27;;;;;;;88.75;36.17;;;;;;;;;;10526948;28;20035;-81
2023/04/16 07:02:28;;;;;;;62.08;29.00;;;;;;;;;;10526747;28;20823;-82
2023/04/16 07:07:30;;;;;;;58.60;26.70;;;;;;;;;;10525112;28;20683;-81
2023/04/16 07:12:32;;;;;;;73.80;30.05;;;;;;;;;;10525819;28;20073;-81
2023/04/16 07:17:32;;;;;;;70.13;29.97;;;;;;;;;;10526536;28;20024;-82
2023/04/16 07:22:33;;;;;;;64.88;26.77;;;;;;;;;;10526891;28;20026;-83
2023/04/16 07:27:34;;;;;;;68.68;31.48;;;;;;;;;;10526520;28;20160;-81
2023/04/16 07:32:35;;;;;;;66.45;28.02;;;;;;;;;;10522998;28;20024;-81
2023/04/16 07:37:36;;;;;;;55.55;25.55;;;;;;;;;;10523748;28;20028;-81
2023/04/16 07:42:37;;;;;;;69.25;28.63;;;;;;;;;;10524598;28;20040;-81
2023/04/16 07:47:38;;;;;;;45.63;22.67;;;;;;;;;;10532225;28;20051;-81
2023/04/16 07:52:41;;;;;;;45.42;21.90;;;;;;;;;;10534687;28;20032;-80
2023/04/16 07:57:42;;;;;;;38.72;19.17;;;;;;;;;;10534524;28;20028;-81
2023/04/16 08:02:43;;;;;;;36.45;16.95;;;;;;;;;;10533904;28;20051;-81
2023/04/16 08:07:44;;;;;;;35.83;18.45;;;;;;;;;;10533701;28;20093;-81
2023/04/16 08:12:45;;;;;;;29.63;16.30;;;;;;;;;;10534644;28;20092;-81
2023/04/16 08:17:46;;;;;;;26.60;14.85;;;;;;;;;;10533656;28;20548;-81
2023/04/16 08:22:47;;;;;;;26.70;15.43;;;;;;;;;;10533421;28;20498;-81
2023/04/16 08:27:48;;;;;;;25.75;14.40;;;;;;;;;;10533435;28;20044;-81
2023/04/16 08:32:49;;;;;;;22.77;13.30;;;;;;;;;;10532283;28;20563;-81
2023/04/16 08:37:50;;;;;;;18.55;11.38;;;;;;;;;;10533378;28;20474;-83
2023/04/16 08:42:54;;;;;;;23.08;13.35;;;;;;;;;;10532967;28;20028;-82
2023/04/16 08:47:55;;;;;;;19.27;10.85;;;;;;;;;;10532436;28;20550;-83
2023/04/16 08:52:58;;;;;;;21.15;11.77;;;;;;;;;;10532602;28;20031;-82
2023/04/16 08:58:00;;;;;;;19.35;11.60;;;;;;;;;;10521907;28;20471;-80
2023/04/16 09:03:02;;;;;;;21.10;12.68;;;;;;;;;;10519224;28;20051;-82
2023/04/16 09:08:05;;;;;;;16.90;9.23;;;;;;;;;;10529490;28;20063;-81
2023/04/16 09:13:08;;;;;;;21.73;14.05;;;;;;;;;;10530881;28;20403;-79
2023/04/16 09:18:10;;;;;;;20.55;13.10;;;;;;;;;;10509715;28;20535;-80
2023/04/16 09:23:11;;;;;;;24.63;15.77;;;;;;;;;;10522999;28;20068;-81
2023/04/16 09:28:12;;;;;;;21.27;13.55;;;;;;;;;;10530734;28;20548;-81
2023/04/16 09:33:15;;;;;;;16.23;10.57;;;;;;;;;;10530363;28;20028;-81
2023/04/16 09:38:17;;;;;;;17.45;10.35;;;;;;;;;;10529932;28;20056;-80
2023/04/16 09:43:18;;;;;;;13.27;9.40;;;;;;;;;;10528600;28;20534;-81
2023/04/16 09:48:32;;;;;;;13.63;8.88;;;;;;;;;;10527507;28;20074;-82
2023/04/16 09:53:33;;;;;;;14.70;9.55;;;;;;;;;;10527082;28;20038;-82
2023/04/16 09:58:37;;;;;;;13.82;10.00;;;;;;;;;;10522912;28;20519;-82
2023/04/16 10:03:39;;;;;;;14.82;10.00;;;;;;;;;;10514980;28;20066;-81
2023/04/16 10:08:47;;;;;;;13.75;9.90;;;;;;;;;;10485806;28;20040;-81
2023/04/16 10:13:48;;;;;;;13.95;10.73;;;;;;;;;;10487286;28;20040;-81
2023/04/16 10:18:49;;;;;;;13.15;10.00;;;;;;;;;;10466490;28;20042;-82
2023/04/16 10:23:51;;;;;;;12.93;9.50;;;;;;;;;;10485314;28;20035;-81
2023/04/16 10:28:52;;;;;;;15.02;9.90;;;;;;;;;;10486326;28;20055;-81
2023/04/16 10:33:54;;;;;;;12.32;8.88;;;;;;;;;;10487570;28;20127;-83
2023/04/16 10:38:58;;;;;;;13.27;9.40;;;;;;;;;;10485489;28;20484;-80
2023/04/16 10:44:08;;;;;;;12.10;8.45;;;;;;;;;;10484205;28;20476;-81
2023/04/16 10:49:18;;;;;;;11.60;8.35;;;;;;;;;;10481620;28;20055;-81
2023/04/16 10:54:20;;;;;;;10.07;8.15;;;;;;;;;;10485931;28;20029;-81
2023/04/16 10:59:23;;;;;;;11.50;8.43;;;;;;;;;;10475196;28;20111;-80
2023/04/16 11:04:23;;;;;;;15.73;12.40;;;;;;;;;;10507325;28;20458;-81
2023/04/16 11:09:46;;;;;;;18.23;13.88;;;;;;;;;;10526895;28;20051;-81
2023/04/16 11:20:27;;;;;;;126.32;81.03;;;;;;;;;;10513782;28;20471;-83
2023/04/16 11:25:29;;;;;;;17.77;14.02;;;;;;;;;;10525002;28;20024;-81
2023/04/16 11:30:34;;;;;;;16.10;12.15;;;;;;;;;;10525428;28;20067;-81
2023/04/16 11:35:35;;;;;;;17.37;12.93;;;;;;;;;;10524158;28;20036;-82
2023/04/16 11:40:36;;;;;;;16.50;12.38;;;;;;;;;;10526329;28;20032;-81
2023/04/16 11:45:37;;;;;;;19.30;13.85;;;;;;;;;;10525663;28;20031;-83
2023/04/16 11:56:24;;;;;;;16.95;12.82;;;;;;;;;;10525462;28;20035;-80
2023/04/16 12:01:26;;;;;;;16.27;13.00;;;;;;;;;;10525576;28;20862;-82
2023/04/16 12:06:27;;;;;;;19.40;14.38;;;;;;;;;;10525391;28;20521;-83
2023/04/16 12:11:38;;;;;;;18.30;13.73;;;;;;;;;;10524999;28;20032;-83
2023/04/16 12:16:39;;;;;;;15.43;12.02;;;;;;;;;;10526034;28;20089;-80
2023/04/16 12:21:40;;;;;;;18.30;13.23;;;;;;;;;;10522453;28;20627;-81
2023/04/16 12:26:43;;;;;;;19.63;13.48;;;;;;;;;;10521850;28;20046;-82
2023/04/16 12:31:44;;;;;;;18.65;13.23;;;;;;;;;;10526569;28;20036;-82
2023/04/16 12:36:46;;;;;;;14.98;10.80;;;;;;;;;;10536444;28;20024;-81
2023/04/16 12:41:47;;;;;;;15.25;10.77;;;;;;;;;;10531407;28;20078;-84
2023/04/16 12:46:48;;;;;;;14.00;10.20;;;;;;;;;;10512662;28;20093;-81
2023/04/16 12:51:49;;;;;;;12.50;10.13;;;;;;;;;;10532543;28;20051;-82
2023/04/16 12:56:50;;;;;;;12.05;8.70;;;;;;;;;;10537390;28;20030;-82
2023/04/16 13:01:51;;;;;;;11.45;8.57;;;;;;;;;;10531578;28;20479;-82
2023/04/16 13:06:52;;;;;;;12.18;8.43;;;;;;;;;;10531605;28;20040;-81
2023/04/16 13:11:53;;;;;;;10.60;8.23;;;;;;;;;;10530952;28;20040;-84
2023/04/16 13:16:54;;;;;;;10.30;8.20;;;;;;;;;;10530818;28;20028;-81
2023/04/16 13:21:55;;;;;;;10.25;8.25;;;;;;;;;;10530736;28;20020;-84
2023/04/16 13:26:56;;;;;;;9.57;7.35;;;;;;;;;;10529949;28;20071;-84
2023/04/16 13:31:57;;;;;;;7.85;6.30;;;;;;;;;;10530240;28;20112;-82
2023/04/16 13:36:58;;;;;;;6.95;6.10;;;;;;;;;;10529378;28;20044;-84
2023/04/16 13:41:59;;;;;;;7.30;6.10;;;;;;;;;;10529362;28;20481;-83
2023/04/16 13:47:00;;;;;;;8.00;6.50;;;;;;;;;;10541742;28;20043;-82
2023/04/16 13:52:01;;;;;;;8.52;6.43;;;;;;;;;;10527708;28;20063;-84
2023/04/16 13:57:02;;;;;;;7.90;5.60;;;;;;;;;;10528371;28;20476;-82
2023/04/16 14:02:03;;;;;;;7.43;6.22;;;;;;;;;;10515514;28;20048;-82
2023/04/16 14:07:05;;;;;;;9.82;7.50;;;;;;;;;;10519922;28;20040;-82
2023/04/16 14:12:06;;;;;;;8.23;6.95;;;;;;;;;;10503484;28;20036;-84
2023/04/16 14:17:07;;;;;;;10.27;7.45;;;;;;;;;;10514360;28;20040;-82
2023/04/16 14:22:08;;;;;;;9.88;7.90;;;;;;;;;;10528133;28;20402;-83
2023/04/16 14:27:09;;;;;;;9.95;8.10;;;;;;;;;;10527019;28;20466;-81
2023/04/16 14:32:10;;;;;;;12.45;8.88;;;;;;;;;;10516879;28;20031;-81
2023/04/16 14:37:12;;;;;;;12.13;9.35;;;;;;;;;;10526942;28;20024;-81
2023/04/16 14:42:13;;;;;;;11.63;8.45;;;;;;;;;;10526745;28;20036;-82
2023/04/16 14:47:16;;;;;;;10.70;8.38;;;;;;;;;;10518088;28;20039;-84
2023/04/16 14:52:18;;;;;;;12.32;8.75;;;;;;;;;;10525756;28;20486;-81
2023/04/16 14:57:19;;;;;;;9.98;7.50;;;;;;;;;;10517812;28;20031;-81
2023/04/16 15:02:20;;;;;;;8.13;6.80;;;;;;;;;;10524565;28;20055;-81
2023/04/16 15:07:26;;;;;;;9.07;7.35;;;;;;;;;;10526186;28;20504;-82
2023/04/16 15:12:27;;;;;;;10.57;7.15;;;;;;;;;;10520953;28;20027;-82
2023/04/16 15:17:28;;;;;;;10.38;7.20;;;;;;;;;;10523502;28;20035;-83
2023/04/16 15:22:30;;;;;;;9.15;7.13;;;;;;;;;;10534494;28;20052;-82
2023/04/16 15:27:31;;;;;;;8.73;7.15;;;;;;;;;;10525229;28;20044;-81
2023/04/16 15:32:32;;;;;;;8.27;6.82;;;;;;;;;;10507069;28;20042;-81
2023/04/16 15:37:33;;;;;;;9.70;6.95;;;;;;;;;;10525040;28;20078;-81
2023/04/16 15:42:34;;;;;;;11.30;7.70;;;;;;;;;;10520389;28;20036;-83
2023/04/16 15:47:35;;;;;;;13.07;8.02;;;;;;;;;;10522418;28;20040;-82
2023/04/16 15:52:37;;;;;;;11.40;7.90;;;;;;;;;;10519569;28;20406;-82
2023/04/16 15:57:38;;;;;;;10.10;7.88;;;;;;;;;;10522466;28;20035;-82
2023/04/16 16:02:40;;;;;;;11.38;8.25;;;;;;;;;;10520514;28;20522;-82
2023/04/16 16:07:41;;;;;;;10.80;8.10;;;;;;;;;;10498013;28;20083;-81
2023/04/16 16:12:42;;;;;;;16.00;8.07;;;;;;;;;;10492275;28;20044;-82
2023/04/16 16:17:43;;;;;;;11.07;7.70;;;;;;;;;;10495667;28;20028;-82
2023/04/16 16:22:46;;;;;;;10.77;7.35;;;;;;;;;;10498065;28;20032;-82
2023/04/16 16:27:47;;;;;;;10.35;7.45;;;;;;;;;;10493402;28;20033;-82
2023/04/16 16:32:48;;;;;;;11.93;7.47;;;;;;;;;;10496365;28;20472;-82
2023/04/16 16:37:56;;;;;;;10.95;7.30;;;;;;;;;;10490330;28;20024;-81
2023/04/16 16:43:01;;;;;;;12.25;7.82;;;;;;;;;;10506233;28;20059;-83
2023/04/16 16:48:02;;;;;;;11.50;7.78;;;;;;;;;;10491412;28;20117;-81
2023/04/16 16:53:05;;;;;;;12.80;8.27;;;;;;;;;;10499638;28;20707;-82
2023/04/16 16:58:08;;;;;;;11.70;7.43;;;;;;;;;;10489874;28;20399;-81
2023/04/16 17:03:09;;;;;;;12.85;8.43;;;;;;;;;;10498142;28;20517;-84
2023/04/16 17:08:10;;;;;;;10.52;7.78;;;;;;;;;;10495153;28;20036;-83
2023/04/16 17:13:13;;;;;;;11.30;7.80;;;;;;;;;;10490018;28;20070;-83
2023/04/16 17:18:14;;;;;;;15.20;8.50;;;;;;;;;;10489492;28;20039;-84
2023/04/16 17:23:17;;;;;;;13.73;7.97;;;;;;;;;;10488722;28;20056;-83
2023/04/16 17:28:18;;;;;;;13.85;8.52;;;;;;;;;;10492098;28;20048;-82
2023/04/16 17:33:19;;;;;;;15.63;9.85;;;;;;;;;;10473571;28;20093;-83
2023/04/16 17:38:20;;;;;;;17.73;10.73;;;;;;;;;;10495153;28;20129;-83
2023/04/16 17:43:22;;;;;;;18.15;9.90;;;;;;;;;;10502434;28;20123;-82
2023/04/16 17:48:23;;;;;;;16.65;9.43;;;;;;;;;;10491379;28;20043;-82
2023/04/16 17:53:24;;;;;;;17.83;10.10;;;;;;;;;;10485806;28;20392;-83
2023/04/16 17:58:26;;;;;;;18.27;10.48;;;;;;;;;;10469037;28;20878;-86
2023/04/16 18:03:26;;;;;;;20.77;11.70;;;;;;;;;;10485217;28;20090;-83
2023/04/16 18:08:27;;;;;;;28.10;14.02;;;;;;;;;;10528073;28;20140;-84
2023/04/16 18:13:29;;;;;;;25.90;14.20;;;;;;;;;;10526409;28;20035;-83
2023/04/16 18:18:30;;;;;;;23.48;13.35;;;;;;;;;;10527983;28;20114;-82
2023/04/16 18:23:30;;;;;;;22.95;13.35;;;;;;;;;;10528035;28;20107;-82
2023/04/16 18:28:34;;;;;;;29.83;16.20;;;;;;;;;;10525385;28;20043;-83
2023/04/16 18:33:37;;;;;;;28.92;15.57;;;;;;;;;;10526694;28;20040;-83
2023/04/16 18:38:47;;;;;;;26.15;14.57;;;;;;;;;;10526746;28;20035;-82
2023/04/16 18:43:49;;;;;;;30.35;16.88;;;;;;;;;;10526743;28;20055;-82
2023/04/16 18:48:52;;;;;;;29.60;15.68;;;;;;;;;;10525808;28;20063;-83
2023/04/16 18:53:53;;;;;;;28.17;16.55;;;;;;;;;;10525975;28;20116;-82
2023/04/16 18:58:54;;;;;;;26.73;15.48;;;;;;;;;;10525695;28;20027;-82
2023/04/16 19:03:55;;;;;;;24.35;15.02;;;;;;;;;;10514183;28;20056;-82
2023/04/16 19:08:58;;;;;;;28.10;16.10;;;;;;;;;;10526323;28;20117;-82
2023/04/16 19:14:01;;;;;;;31.38;17.33;;;;;;;;;;10525583;28;20036;-82
2023/04/16 19:19:02;;;;;;;34.40;18.98;;;;;;;;;;10526563;28;20024;-83
2023/04/16 19:24:03;;;;;;;40.00;20.85;;;;;;;;;;10523579;28;20036;-82
2023/04/16 19:29:04;;;;;;;49.08;25.45;;;;;;;;;;10513944;28;20044;-82
2023/04/16 19:34:05;;;;;;;34.70;20.10;;;;;;;;;;10526643;28;20120;-83
2023/04/16 19:39:06;;;;;;;37.80;21.87;;;;;;;;;;10525706;28;20029;-83
2023/04/16 19:44:07;;;;;;;41.80;23.10;;;;;;;;;;10533586;28;20032;-82
2023/04/16 19:49:08;;;;;;;38.33;21.80;;;;;;;;;;10516540;28;20076;-82
2023/04/16 19:54:09;;;;;;;41.20;22.37;;;;;;;;;;10537076;28;20103;-82
2023/04/16 19:59:10;;;;;;;42.63;23.63;;;;;;;;;;10535046;28;20028;-82
2023/04/16 20:04:11;;;;;;;41.07;22.43;;;;;;;;;;10534330;28;20110;-82
2023/04/16 20:09:12;;;;;;;38.93;20.23;;;;;;;;;;10533897;28;20085;-84
2023/04/16 20:14:13;;;;;;;38.80;21.17;;;;;;;;;;10533848;28;20663;-82
2023/04/16 20:19:15;;;;;;;40.43;21.87;;;;;;;;;;10534725;28;20036;-82
2023/04/16 20:24:16;;;;;;;36.57;21.17;;;;;;;;;;10513776;28;20032;-82
2023/04/16 20:29:17;;;;;;;40.57;23.10;;;;;;;;;;10533098;28;20028;-83
2023/04/16 20:34:17;;;;;;;37.53;21.63;;;;;;;;;;10531725;28;20209;-82
2023/04/16 20:39:19;;;;;;;42.60;22.13;;;;;;;;;;10531843;28;20040;-82
2023/04/16 20:44:24;;;;;;;40.23;21.57;;;;;;;;;;10532136;28;20043;-83
2023/04/16 20:49:25;;;;;;;36.72;20.00;;;;;;;;;;10532169;28;20772;-81
2023/04/16 20:54:27;;;;;;;36.97;18.53;;;;;;;;;;10530994;28;20035;-82
2023/04/16 20:59:27;;;;;;;35.47;18.60;;;;;;;;;;10532402;28;20112;-82
2023/04/16 21:04:28;;;;;;;32.30;18.23;;;;;;;;;;10516868;28;20139;-82
2023/04/16 21:09:30;;;;;;;33.93;17.93;;;;;;;;;;10489458;28;20041;-82
2023/04/16 21:14:31;;;;;;;33.63;18.67;;;;;;;;;;10489813;28;20040;-82
2023/04/16 21:19:32;;;;;;;27.80;17.07;;;;;;;;;;10488973;28;20025;-82
2023/04/16 21:24:33;;;;;;;31.77;18.30;;;;;;;;;;10489738;28;20139;-82
2023/04/16 21:29:34;;;;;;;26.80;15.33;;;;;;;;;;10489064;28;20028;-82
2023/04/16 21:34:35;;;;;;;31.07;16.93;;;;;;;;;;10488935;28;20429;-81
2023/04/16 21:39:35;;;;;;;27.07;15.87;;;;;;;;;;10488807;28;20024;-81
2023/04/16 21:44:37;;;;;;;28.00;16.50;;;;;;;;;;10488836;28;20036;-83
2023/04/16 21:49:44;;;;;;;31.40;16.97;;;;;;;;;;10488180;28;20747;-82
2023/04/16 21:54:45;;;;;;;29.23;17.00;;;;;;;;;;10482405;28;20112;-81
2023/04/16 21:59:46;;;;;;;31.17;17.87;;;;;;;;;;10478106;28;20033;-82
2023/04/16 22:04:47;;;;;;;31.27;17.33;;;;;;;;;;10515873;28;20047;-84
2023/04/16 22:09:52;;;;;;;32.47;18.77;;;;;;;;;;10529465;28;20047;-82
2023/04/16 22:14:53;;;;;;;36.40;20.43;;;;;;;;;;10529143;28;20032;-82
2023/04/16 22:19:54;;;;;;;29.80;18.60;;;;;;;;;;10527588;28;20032;-81
2023/04/16 22:24:54;;;;;;;32.63;19.60;;;;;;;;;;10528218;28;20028;-81
2023/04/16 22:29:55;;;;;;;35.77;19.43;;;;;;;;;;10528603;28;20053;-82
2023/04/16 22:34:56;;;;;;;34.53;18.93;;;;;;;;;;10527833;28;20482;-82
2023/04/16 22:39:57;;;;;;;31.97;19.33;;;;;;;;;;10527733;28;20140;-82
2023/04/16 22:44:58;;;;;;;31.97;17.80;;;;;;;;;;10527076;28;20039;-82
2023/04/16 22:49:59;;;;;;;25.80;16.03;;;;;;;;;;10526890;28;20043;-82
2023/04/16 22:55:00;;;;;;;31.33;17.80;;;;;;;;;;10527137;28;20026;-81
2023/04/16 23:00:04;;;;;;;30.87;16.03;;;;;;;;;;10527598;28;20400;-83
2023/04/16 23:05:05;;;;;;;30.30;16.67;;;;;;;;;;10526408;28;20051;-82
2023/04/16 23:10:07;;;;;;;24.57;15.40;;;;;;;;;;10526799;28;20093;-82
2023/04/16 23:15:08;;;;;;;29.33;16.13;;;;;;;;;;10526015;28;20036;-82
2023/04/16 23:20:11;;;;;;;30.50;17.17;;;;;;;;;;10524614;28;20487;-81
2023/04/16 23:25:12;;;;;;;29.53;16.73;;;;;;;;;;10526676;28;20024;-83
2023/04/16 23:30:13;;;;;;;29.27;16.67;;;;;;;;;;10525842;28;20853;-82
2023/04/16 23:35:21;;;;;;;26.23;14.97;;;;;;;;;;10526067;28;20039;-83
2023/04/16 23:40:22;;;;;;;29.03;16.60;;;;;;;;;;10525429;28;20148;-82
2023/04/16 23:45:23;;;;;;;32.30;17.63;;;;;;;;;;10526151;28;20032;-81
2023/04/16 23:50:25;;;;;;;28.03;16.27;;;;;;;;;;10525773;28;20036;-83
2023/04/16 23:55:26;;;;;;;33.10;18.83;;;;;;;;;;10525795;28;20517;-82
